createdAt,value
2022-11-03T00:01:43.500Z,1.42
2022-11-03T00:04:12.583Z,1.58
2022-11-03T00:06:41.308Z,1.88
2022-11-03T00:09:11.305Z,1.58
2022-11-03T00:11:39.897Z,1.70
2022-11-03T00:14:09.232Z,2.00
2022-11-03T00:16:36.902Z,2.22
2022-11-03T00:19:04.714Z,1.50
2022-11-03T00:21:32.120Z,1.48
2022-11-03T00:23:59.115Z,1.40
2022-11-03T00:26:28.129Z,1.20
2022-11-03T00:28:57.105Z,1.70
2022-11-03T00:31:26.511Z,1.50
2022-11-03T00:33:54.504Z,1.55
2022-11-03T00:36:23.573Z,1.63
2022-11-03T00:38:50.648Z,1.60
2022-11-03T00:41:18.842Z,1.60
2022-11-03T00:43:45.654Z,1.23
2022-11-03T00:46:12.614Z,1.42
2022-11-03T00:48:39.912Z,1.45
2022-11-03T00:51:18.417Z,1.40
2022-11-03T00:53:47.996Z,1.60
2022-11-03T00:56:20.291Z,1.25
2022-11-03T00:58:47.261Z,1.58
2022-11-03T01:01:18.404Z,1.65
2022-11-03T01:04:06.267Z,1.52
2022-11-03T01:06:50.511Z,1.70
2022-11-03T01:09:24.937Z,1.40
2022-11-03T01:12:13.745Z,1.50
2022-11-03T01:14:46.207Z,1.60
2022-11-03T01:17:21.809Z,1.58
2022-11-03T01:19:48.906Z,1.60
2022-11-03T01:22:16.736Z,1.27
2022-11-03T01:24:44.703Z,1.65
2022-11-03T01:27:14.082Z,1.42
2022-11-03T01:29:41.306Z,1.20
2022-11-03T01:32:10.839Z,1.33
2022-11-03T01:34:38.211Z,1.30
2022-11-03T01:37:05.794Z,1.58
2022-11-03T01:39:32.710Z,1.20
2022-11-03T01:41:59.539Z,0.98
2022-11-03T01:44:30.294Z,1.10
2022-11-03T01:47:13.239Z,1.10
2022-11-03T01:49:53.982Z,1.25
2022-11-03T01:52:30.728Z,1.20
2022-11-03T01:55:04.733Z,1.10
2022-11-03T01:57:39.946Z,1.17
2022-11-03T02:00:07.577Z,1.30
2022-11-03T02:02:41.294Z,1.20
2022-11-03T02:05:10.332Z,1.45
2022-11-03T02:07:54.235Z,1.10
2022-11-03T02:10:24.117Z,1.20
2022-11-03T02:12:52.180Z,1.10
2022-11-03T02:15:24.448Z,1.15
2022-11-03T02:17:54.199Z,1.60
2022-11-03T02:20:31.156Z,0.90
2022-11-03T02:23:33.309Z,1.33
2022-11-03T02:26:01.293Z,1.23
2022-11-03T02:28:31.266Z,1.35
2022-11-03T02:31:10.451Z,1.38
2022-11-03T02:33:49.551Z,1.40
2022-11-03T02:36:30.044Z,1.45
2022-11-03T02:39:13.472Z,1.30
2022-11-03T02:41:42.157Z,1.50
2022-11-03T02:44:17.685Z,1.27
2022-11-03T02:46:48.822Z,1.10
2022-11-03T02:49:16.110Z,1.20
2022-11-03T02:51:44.061Z,1.20
2022-11-03T02:54:26.246Z,1.10
2022-11-03T02:57:01.933Z,1.27
2022-11-03T02:59:41.095Z,1.27
2022-11-03T03:02:12.131Z,1.17
2022-11-03T03:04:59.571Z,1.48
2022-11-03T03:07:34.394Z,1.48
2022-11-03T03:10:23.923Z,1.42
2022-11-03T03:12:57.805Z,1.15
2022-11-03T03:15:49.118Z,1.40
2022-11-03T03:18:28.476Z,1.63
2022-11-03T03:21:01.231Z,1.10
2022-11-03T03:23:35.044Z,1.17
2022-11-03T03:26:13.963Z,1.20
2022-11-03T03:28:46.021Z,1.20
2022-11-03T03:31:14.909Z,1.20
2022-11-03T03:33:47.584Z,1.20
2022-11-03T03:36:18.494Z,1.45
2022-11-03T03:38:50.942Z,1.30
2022-11-03T03:41:22.284Z,1.08
2022-11-03T03:43:54.560Z,1.33
2022-11-03T03:46:24.010Z,1.00
2022-11-03T03:48:51.191Z,1.30
2022-11-03T03:51:21.676Z,1.20
2022-11-03T03:53:55.347Z,1.02
2022-11-03T03:56:38.014Z,1.17
2022-11-03T03:59:04.856Z,0.93
2022-11-03T04:01:31.834Z,1.00
2022-11-03T04:03:58.717Z,1.02
2022-11-03T04:06:25.573Z,1.10
2022-11-03T04:08:52.377Z,0.98
2022-11-03T04:11:38.116Z,0.80
2022-11-03T04:14:23.319Z,1.00
2022-11-03T04:17:08.679Z,0.90
2022-11-03T04:19:53.997Z,1.00
2022-11-03T04:22:22.230Z,1.08
2022-11-03T04:24:51.781Z,1.00
2022-11-03T04:27:35.763Z,1.25
2022-11-03T04:30:07.320Z,0.88
2022-11-03T04:32:34.543Z,0.85
2022-11-03T04:35:01.379Z,1.00
2022-11-03T04:37:29.206Z,0.82
2022-11-03T04:40:00.403Z,1.17
2022-11-03T04:42:30.011Z,1.10
2022-11-03T04:44:58.470Z,1.13
2022-11-03T04:47:26.314Z,1.38
2022-11-03T04:49:53.114Z,0.98
2022-11-03T04:52:22.142Z,1.10
2022-11-03T04:54:51.773Z,1.13
2022-11-03T04:57:18.814Z,0.90
2022-11-03T04:59:48.826Z,0.77
2022-11-03T05:02:19.180Z,1.00
2022-11-03T05:04:46.462Z,1.00
2022-11-03T05:07:42.986Z,1.00
2022-11-03T05:10:20.723Z,1.10
2022-11-03T05:12:48.755Z,0.90
2022-11-03T05:15:34.609Z,1.05
2022-11-03T05:18:12.213Z,1.27
2022-11-03T05:20:52.888Z,1.13
2022-11-03T05:23:22.123Z,1.58
2022-11-03T05:25:52.786Z,1.52
2022-11-03T05:28:48.910Z,1.17
2022-11-03T05:31:27.076Z,1.23
2022-11-03T05:33:58.509Z,1.05
2022-11-03T05:36:28.625Z,1.10
2022-11-03T05:39:11.051Z,1.20
2022-11-03T05:41:38.289Z,1.40
2022-11-03T05:44:37.160Z,1.20
2022-11-03T05:47:14.682Z,1.27
2022-11-03T05:49:42.114Z,1.40
2022-11-03T05:52:27.501Z,1.58
2022-11-03T05:54:58.653Z,1.73
2022-11-03T05:57:28.737Z,1.45
2022-11-03T05:59:56.340Z,1.45
2022-11-03T06:02:26.005Z,1.52
2022-11-03T06:04:52.984Z,1.40
2022-11-03T06:07:25.598Z,1.80
2022-11-03T06:09:55.996Z,1.50
2022-11-03T06:12:24.367Z,1.75
2022-11-03T06:14:52.195Z,1.40
2022-11-03T06:17:23.821Z,1.23
2022-11-03T06:19:55.287Z,1.55
2022-11-03T06:22:31.070Z,1.30
2022-11-03T06:25:35.083Z,1.48
2022-11-03T06:28:11.484Z,1.20
2022-11-03T06:33:28.690Z,1.27
2022-11-03T06:36:23.462Z,1.40
2022-11-03T06:39:03.104Z,1.30
2022-11-03T06:41:32.569Z,1.40
2022-11-03T06:44:02.643Z,1.40
2022-11-03T06:46:30.725Z,1.38
2022-11-03T06:49:01.733Z,1.70
2022-11-03T06:51:29.999Z,1.60
2022-11-03T06:54:01.357Z,1.60
2022-11-03T06:56:36.556Z,1.42
2022-11-03T06:59:03.418Z,1.70
2022-11-03T07:01:33.682Z,1.23
2022-11-03T07:04:06.370Z,1.40
2022-11-03T07:06:36.489Z,1.52
2022-11-03T07:09:06.900Z,1.25
2022-11-03T07:11:58.329Z,1.70
2022-11-03T07:14:31.273Z,1.83
2022-11-03T07:17:02.315Z,1.65
2022-11-03T07:19:39.022Z,1.88
2022-11-03T07:22:10.740Z,1.67
2022-11-03T07:24:41.772Z,1.52
2022-11-03T07:27:22.002Z,1.17
2022-11-03T07:29:50.722Z,1.60
2022-11-03T07:32:24.184Z,1.60
2022-11-03T07:34:53.788Z,1.50
2022-11-03T07:37:23.787Z,1.40
2022-11-03T07:39:51.409Z,1.30
2022-11-03T07:42:21.782Z,1.80
2022-11-03T07:44:49.808Z,1.30
2022-11-03T07:47:22.030Z,1.92
2022-11-03T07:49:48.997Z,1.40
2022-11-03T07:52:19.904Z,2.00
2022-11-03T07:54:46.840Z,1.58
2022-11-03T07:57:15.705Z,1.40
2022-11-03T07:59:45.412Z,1.50
2022-11-03T08:02:35.052Z,1.65
2022-11-03T08:05:02.588Z,1.52
2022-11-03T08:07:29.930Z,1.98
2022-11-03T08:09:56.875Z,1.88
2022-11-03T08:12:24.297Z,1.65
2022-11-03T08:14:51.543Z,1.65
2022-11-03T08:17:18.961Z,1.90
2022-11-03T08:19:45.945Z,1.90
2022-11-03T08:22:13.049Z,1.67
2022-11-03T08:24:40.163Z,1.70
2022-11-03T08:27:06.995Z,1.52
2022-11-03T08:29:34.187Z,2.03
2022-11-03T08:32:01.469Z,2.00
2022-11-03T08:34:28.558Z,1.95
2022-11-03T08:36:55.359Z,2.00
2022-11-03T08:39:22.281Z,2.05
2022-11-03T08:41:49.032Z,1.90
2022-11-03T08:44:15.779Z,2.20
2022-11-03T08:46:42.533Z,2.00
2022-11-03T08:49:09.274Z,2.08
2022-11-03T08:51:40.117Z,2.10
2022-11-03T08:54:10.150Z,2.38
2022-11-03T08:56:36.922Z,2.83
2022-11-03T08:59:04.154Z,2.40
2022-11-03T09:01:31.155Z,2.80
2022-11-03T09:03:58.327Z,2.92
2022-11-03T09:06:25.283Z,2.83
2022-11-03T09:11:38.865Z,3.20
2022-11-03T09:14:05.620Z,3.47
2022-11-03T09:16:32.452Z,3.40
2022-11-03T09:18:59.284Z,3.08
2022-11-03T09:21:26.042Z,3.08
2022-11-03T09:23:52.809Z,3.60
2022-11-03T09:26:20.214Z,3.50
2022-11-03T09:28:47.333Z,3.22
2022-11-03T09:31:14.153Z,3.90
2022-11-03T09:33:41.008Z,3.50
2022-11-03T09:36:08.485Z,3.28
2022-11-03T09:38:35.328Z,2.92
2022-11-03T09:41:13.555Z,3.20
2022-11-03T09:43:53.266Z,3.10
2022-11-03T09:46:20.270Z,3.80
2022-11-03T09:48:47.653Z,3.13
2022-11-03T09:51:20.171Z,3.40
2022-11-03T09:53:48.104Z,3.33
2022-11-03T09:56:18.020Z,3.22
2022-11-03T09:58:47.535Z,3.28
2022-11-03T10:01:16.933Z,3.22
2022-11-03T10:03:44.313Z,3.47
2022-11-03T10:06:14.413Z,3.40
2022-11-03T10:08:44.445Z,3.47
2022-11-03T10:11:11.523Z,3.20
2022-11-03T10:13:44.920Z,3.75
2022-11-03T10:16:17.325Z,3.00
2022-11-03T10:18:44.732Z,3.70
2022-11-03T10:21:34.170Z,3.97
2022-11-03T10:24:01.030Z,3.20
2022-11-03T10:26:27.863Z,3.45
2022-11-03T10:28:59.246Z,3.47
2022-11-03T10:31:33.636Z,3.10
2022-11-03T10:36:29.834Z,2.42
2022-11-03T10:38:57.617Z,2.85
2022-11-03T10:41:29.342Z,3.08
2022-11-03T10:44:11.155Z,3.28
2022-11-03T10:46:54.999Z,2.85
2022-11-03T10:49:22.185Z,3.70
2022-11-03T10:51:54.015Z,3.35
2022-11-03T10:54:24.709Z,3.08
2022-11-03T10:56:52.608Z,3.45
2022-11-03T10:59:22.706Z,3.38
2022-11-03T11:01:49.779Z,3.22
2022-11-03T11:04:18.160Z,3.70
2022-11-03T11:06:46.211Z,3.42
2022-11-03T11:09:22.452Z,3.00
2022-11-03T11:12:07.100Z,3.10
2022-11-03T11:14:39.448Z,2.97
2022-11-03T11:17:06.548Z,3.10
2022-11-03T11:20:11.982Z,2.70
2022-11-03T11:25:05.723Z,2.50
2022-11-03T11:27:32.465Z,2.47
2022-11-03T11:30:00.506Z,2.53
2022-11-03T11:32:39.769Z,2.42
2022-11-03T11:35:11.413Z,2.33
2022-11-03T11:37:38.616Z,2.63
2022-11-03T11:40:24.726Z,2.85
2022-11-03T11:43:20.260Z,2.78
2022-11-03T11:46:22.587Z,3.05
2022-11-03T11:49:04.271Z,2.80
2022-11-03T11:51:35.503Z,3.20
2022-11-03T11:54:17.454Z,2.60
2022-11-03T11:56:48.805Z,2.33
2022-11-03T11:59:25.545Z,2.50
2022-11-03T12:01:55.576Z,2.70
2022-11-03T12:04:31.749Z,2.50
2022-11-03T12:06:59.494Z,2.60
2022-11-03T12:09:28.123Z,2.42
2022-11-03T12:11:59.399Z,2.60
2022-11-03T12:14:40.523Z,2.72
2022-11-03T12:17:16.382Z,3.03
2022-11-03T12:19:44.370Z,3.25
2022-11-03T12:22:32.414Z,3.28
2022-11-03T12:25:01.307Z,3.63
2022-11-03T12:27:28.883Z,3.35
2022-11-03T12:29:57.866Z,3.17
2022-11-03T12:32:34.160Z,3.22
2022-11-03T12:35:06.723Z,3.20
2022-11-03T12:37:33.601Z,3.00
2022-11-03T12:40:00.639Z,3.22
2022-11-03T12:42:27.702Z,2.75
2022-11-03T12:44:54.517Z,2.97
2022-11-03T12:47:21.691Z,2.85
2022-11-03T12:49:48.957Z,2.80
2022-11-03T12:52:15.945Z,2.75
2022-11-03T12:54:42.724Z,3.20
2022-11-03T12:57:09.852Z,2.70
2022-11-03T12:59:36.963Z,2.83
2022-11-03T13:02:04.606Z,3.13
2022-11-03T13:04:31.590Z,2.88
2022-11-03T13:06:58.571Z,2.63
2022-11-03T13:09:25.502Z,2.80
2022-11-03T13:12:10.792Z,3.13
2022-11-03T13:14:37.637Z,2.25
2022-11-03T13:17:05.222Z,2.45
2022-11-03T13:19:32.336Z,2.67
2022-11-03T13:21:59.175Z,2.47
2022-11-03T13:24:25.975Z,2.50
2022-11-03T13:26:52.769Z,2.28
2022-11-03T13:29:19.605Z,2.38
2022-11-03T13:31:46.385Z,2.53
2022-11-03T13:34:13.199Z,2.60
2022-11-03T13:36:40.038Z,2.63
2022-11-03T13:39:06.877Z,2.47
2022-11-03T13:41:33.770Z,2.30
2022-11-03T13:44:00.606Z,2.97
2022-11-03T13:46:27.437Z,3.22
2022-11-03T13:49:51.175Z,4.53
2022-11-03T13:51:41.182Z,4.53
2022-11-03T13:59:41.634Z,2.42
2022-11-03T14:04:56.756Z,1.95
2022-11-03T14:07:23.549Z,2.40
2022-11-03T14:09:50.479Z,2.20
2022-11-03T14:12:32.345Z,2.05
2022-11-03T14:15:00.694Z,2.38
2022-11-03T14:17:28.227Z,2.40
2022-11-03T14:20:00.893Z,2.00
2022-11-03T14:22:31.004Z,1.70
2022-11-03T14:24:57.982Z,1.95
2022-11-03T14:27:24.926Z,1.83
2022-11-03T14:29:51.849Z,2.03
2022-11-03T14:32:19.575Z,2.20
2022-11-03T14:34:47.860Z,1.92
2022-11-03T14:37:16.349Z,2.25
2022-11-03T14:39:44.081Z,2.05
2022-11-03T14:42:16.657Z,2.10
2022-11-03T14:44:45.778Z,2.25
2022-11-03T14:47:17.446Z,2.00
2022-11-03T14:49:44.812Z,1.95
2022-11-03T14:52:11.947Z,1.92
2022-11-03T14:54:38.902Z,2.45
2022-11-03T14:57:05.741Z,1.70
2022-11-03T14:59:34.148Z,1.73
2022-11-03T15:02:01.896Z,2.08
2022-11-03T15:04:28.915Z,2.10
2022-11-03T15:06:55.784Z,1.70
2022-11-03T15:09:22.785Z,2.15
2022-11-03T15:11:49.803Z,1.70
2022-11-03T15:14:16.615Z,2.08
2022-11-03T15:16:45.815Z,2.00
2022-11-03T15:19:12.816Z,1.90
2022-11-03T15:21:39.637Z,2.00
2022-11-03T15:26:53.552Z,2.22
2022-11-03T15:29:20.464Z,2.30
2022-11-03T15:31:48.473Z,2.15
2022-11-03T15:34:16.352Z,2.17
2022-11-03T15:36:43.383Z,2.00
2022-11-03T15:39:10.162Z,1.92
2022-11-03T15:41:36.965Z,2.03
2022-11-03T15:44:04.116Z,2.50
2022-11-03T15:46:30.928Z,2.17
2022-11-03T15:48:58.482Z,2.58
2022-11-03T15:51:25.485Z,2.33
2022-11-03T15:53:58.233Z,2.38
2022-11-03T15:56:29.794Z,2.17
2022-11-03T15:58:56.679Z,2.10
2022-11-03T16:01:24.054Z,2.03
2022-11-03T16:03:51.170Z,1.98
2022-11-03T16:06:17.994Z,2.33
2022-11-03T16:08:45.112Z,2.13
2022-11-03T16:11:12.154Z,2.00
2022-11-03T16:13:39.552Z,1.92
2022-11-03T16:16:07.101Z,2.25
2022-11-03T16:18:34.859Z,2.60
2022-11-03T16:21:01.702Z,3.15
2022-11-03T16:23:28.491Z,3.05
2022-11-03T16:25:55.467Z,3.30
2022-11-03T16:28:23.223Z,3.25
2022-11-03T16:30:54.253Z,3.78
2022-11-03T16:33:21.999Z,3.33
2022-11-03T16:35:49.313Z,3.67
2022-11-03T16:38:16.323Z,3.78
2022-11-03T16:40:43.574Z,3.28
2022-11-03T16:43:10.879Z,2.95
2022-11-03T16:45:38.427Z,2.42
2022-11-03T16:48:06.512Z,2.58
2022-11-03T16:50:34.077Z,2.10
2022-11-03T16:53:00.949Z,2.90
2022-11-03T16:55:27.765Z,3.17
2022-11-03T16:57:54.556Z,2.83
2022-11-03T17:00:21.625Z,3.00
2022-11-03T17:02:48.537Z,2.15
2022-11-03T17:05:17.690Z,2.78
2022-11-03T17:07:51.780Z,3.00
2022-11-03T17:10:20.076Z,4.05
2022-11-03T17:12:46.937Z,5.57
2022-11-03T17:15:13.895Z,5.13
2022-11-03T17:17:41.465Z,4.13
2022-11-03T17:20:09.236Z,3.40
2022-11-03T17:22:36.470Z,3.13
2022-11-03T17:25:09.476Z,2.42
2022-11-03T17:27:52.262Z,2.30
2022-11-03T17:30:21.431Z,2.35
2022-11-03T17:32:50.834Z,2.20
2022-11-03T17:35:38.976Z,1.85
2022-11-03T17:38:13.817Z,2.15
2022-11-03T17:40:43.298Z,2.33
2022-11-03T17:43:38.003Z,2.33
2022-11-03T17:46:05.876Z,2.30
2022-11-03T17:48:32.855Z,2.40
2022-11-03T17:51:00.437Z,2.30
2022-11-03T17:53:31.096Z,2.30
2022-11-03T17:58:47.364Z,2.42
2022-11-03T18:01:23.161Z,2.25
2022-11-03T18:03:50.403Z,2.13
2022-11-03T18:06:19.445Z,2.22
2022-11-03T18:08:49.963Z,2.20
2022-11-03T18:11:46.073Z,2.50
2022-11-03T18:14:13.211Z,2.28
2022-11-03T18:16:40.785Z,2.55
2022-11-03T18:19:16.090Z,2.50
2022-11-03T18:21:43.983Z,2.55
2022-11-03T18:24:13.802Z,2.60
2022-11-03T18:26:41.456Z,2.58
2022-11-03T18:29:09.067Z,2.83
2022-11-03T18:31:38.962Z,3.00
2022-11-03T18:34:11.890Z,3.17
2022-11-03T18:36:38.781Z,3.28
2022-11-03T18:39:05.938Z,3.08
2022-11-03T18:41:41.973Z,3.10
2022-11-03T18:44:24.485Z,2.90
2022-11-03T18:46:52.601Z,2.95
2022-11-03T18:49:19.759Z,2.80
2022-11-03T18:51:54.417Z,2.45
2022-11-03T18:54:25.421Z,2.70
2022-11-03T18:56:53.658Z,2.65
2022-11-03T18:59:30.855Z,2.80
2022-11-03T19:01:58.792Z,3.30
2022-11-03T19:04:25.736Z,3.17
2022-11-03T19:06:52.966Z,3.33
2022-11-03T19:09:26.023Z,2.90
2022-11-03T19:11:55.830Z,3.08
2022-11-03T19:14:29.585Z,2.67
2022-11-03T19:19:47.138Z,2.90
2022-11-03T19:22:17.571Z,2.90
2022-11-03T19:24:45.397Z,2.60
2022-11-03T19:27:25.478Z,2.90
2022-11-03T19:29:53.376Z,2.25
2022-11-03T19:32:27.771Z,2.70
2022-11-03T19:37:28.765Z,3.05
2022-11-03T19:39:59.667Z,2.88
2022-11-03T19:42:29.358Z,3.33
2022-11-03T19:44:58.256Z,3.72
2022-11-03T19:47:31.515Z,3.72
2022-11-03T19:50:01.641Z,4.38
2022-11-03T19:52:30.462Z,4.53
2022-11-03T19:55:01.202Z,4.47
2022-11-03T19:57:28.134Z,4.80
2022-11-03T19:59:58.968Z,5.07
2022-11-03T20:02:27.900Z,4.82
2022-11-03T20:04:55.026Z,3.92
2022-11-03T20:07:28.206Z,4.20
2022-11-03T20:09:58.230Z,3.78
2022-11-03T20:12:25.135Z,4.20
2022-11-03T20:14:51.908Z,3.83
2022-11-03T20:17:21.598Z,3.80
2022-11-03T20:19:48.483Z,3.60
2022-11-03T20:22:20.263Z,3.38
2022-11-03T20:24:48.919Z,3.08
2022-11-03T20:27:20.123Z,2.83
2022-11-03T20:29:48.659Z,2.45
2022-11-03T20:32:16.133Z,1.90
2022-11-03T20:34:43.096Z,1.98
2022-11-03T20:37:18.861Z,1.85
2022-11-03T20:39:47.083Z,2.03
2022-11-03T20:42:26.120Z,2.00
2022-11-03T20:44:53.123Z,1.90
2022-11-03T20:47:19.969Z,1.60
2022-11-03T20:49:47.296Z,1.42
2022-11-03T20:52:15.327Z,1.60
2022-11-03T20:54:43.375Z,1.65
2022-11-03T20:57:13.966Z,1.83
2022-11-03T20:59:41.271Z,1.48
2022-11-03T21:02:14.497Z,1.77
2022-11-03T21:04:43.138Z,1.60
2022-11-03T21:07:13.731Z,1.55
2022-11-03T21:09:41.035Z,1.63
2022-11-03T21:12:11.934Z,1.83
2022-11-03T21:15:01.226Z,1.77
2022-11-03T21:17:46.812Z,1.95
2022-11-03T21:20:13.903Z,1.52
2022-11-03T21:22:52.304Z,1.70
2022-11-03T21:25:22.286Z,1.55
2022-11-03T21:27:49.741Z,1.67
2022-11-03T21:30:18.181Z,1.98
2022-11-03T21:32:45.303Z,1.80
2022-11-03T21:35:19.286Z,2.00
2022-11-03T21:37:46.381Z,1.90
2022-11-03T21:40:13.423Z,1.88
2022-11-03T21:42:58.686Z,2.00
2022-11-03T21:45:25.628Z,2.25
2022-11-03T21:48:14.092Z,2.50
2022-11-03T21:50:42.252Z,2.50
2022-11-03T21:53:09.952Z,2.63
2022-11-03T21:55:37.288Z,3.05
2022-11-03T21:58:04.546Z,2.67
2022-11-03T22:00:32.480Z,1.90
2022-11-03T22:02:59.856Z,2.15
2022-11-03T22:05:27.343Z,1.50
2022-11-03T22:07:54.205Z,1.90
2022-11-03T22:10:20.991Z,1.83
2022-11-03T22:12:47.765Z,1.77
2022-11-03T22:15:32.970Z,2.08
2022-11-03T22:18:07.147Z,2.22
2022-11-03T22:20:54.689Z,2.55
2022-11-03T22:23:40.239Z,2.40
2022-11-03T22:26:31.818Z,2.90
2022-11-03T22:29:17.978Z,3.20
2022-11-03T22:31:45.240Z,3.20
2022-11-03T22:34:47.728Z,3.40
2022-11-03T22:37:14.525Z,3.42
2022-11-03T22:40:00.059Z,3.97
2022-11-03T22:42:45.470Z,3.50
2022-11-03T22:45:31.092Z,3.80
2022-11-03T22:47:57.947Z,3.58
2022-11-03T22:50:24.895Z,3.60
2022-11-03T22:52:51.696Z,3.92
2022-11-03T22:55:18.448Z,3.97
2022-11-03T22:57:45.281Z,3.70
2022-11-03T23:00:13.479Z,3.88
2022-11-03T23:02:40.370Z,4.20
2022-11-03T23:05:07.529Z,3.70
2022-11-03T23:07:40.828Z,3.63
2022-11-03T23:10:09.027Z,3.45
2022-11-03T23:12:35.789Z,3.35
2022-11-03T23:15:21.486Z,3.35
2022-11-03T23:18:08.021Z,3.78
2022-11-03T23:20:56.371Z,3.53
2022-11-03T23:23:41.769Z,3.08
2022-11-03T23:26:09.158Z,3.58
2022-11-03T23:28:35.966Z,3.78
2022-11-03T23:31:03.081Z,3.88
2022-11-03T23:33:31.078Z,3.65
2022-11-03T23:35:58.170Z,3.63
2022-11-03T23:38:25.079Z,3.38
2022-11-03T23:40:51.847Z,3.55
2022-11-03T23:43:18.618Z,3.60
2022-11-03T23:46:03.949Z,3.58
2022-11-03T23:48:45.810Z,3.58
2022-11-03T23:51:18.198Z,3.10
2022-11-03T23:53:46.273Z,3.13
2022-11-03T23:56:33.596Z,3.10
2022-11-03T23:59:00.783Z,2.90
